sensor_id;sensor_type;location;lat;lon;timestamp;P1;durP1;ratioP1;P2;durP2;ratioP2
17858;SDS011;35426;30.698;104.050;2023-12-20T00:01:27;59.53;;;25.53;;
17858;SDS011;35426;30.698;104.050;2023-12-20T00:04:03;59.63;;;23.60;;
17858;SDS011;35426;30.698;104.050;2023-12-20T00:06:38;63.80;;;25.47;;
17858;SDS011;35426;30.698;104.050;2023-12-20T00:09:13;58.10;;;24.70;;
17858;SDS011;35426;30.698;104.050;2023-12-20T00:11:47;62.03;;;25.57;;
17858;SDS011;35426;30.698;104.050;2023-12-20T00:14:20;65.10;;;25.43;;
17858;SDS011;35426;30.698;104.050;2023-12-20T00:16:55;64.37;;;25.57;;
17858;SDS011;35426;30.698;104.050;2023-12-20T00:19:30;62.23;;;24.97;;
17858;SDS011;35426;30.698;104.050;2023-12-20T00:22:05;54.80;;;25.40;;
17858;SDS011;35426;30.698;104.050;2023-12-20T00:24:38;61.50;;;25.87;;
17858;SDS011;35426;30.698;104.050;2023-12-20T00:27:13;61.63;;;24.20;;
17858;SDS011;35426;30.698;104.050;2023-12-20T00:29:51;59.23;;;26.40;;
17858;SDS011;35426;30.698;104.050;2023-12-20T00:32:24;58.63;;;24.60;;
17858;SDS011;35426;30.698;104.050;2023-12-20T00:35:00;59.47;;;25.20;;
17858;SDS011;35426;30.698;104.050;2023-12-20T00:37:36;61.07;;;26.00;;
17858;SDS011;35426;30.698;104.050;2023-12-20T00:40:10;59.20;;;25.17;;
17858;SDS011;35426;30.698;104.050;2023-12-20T00:42:44;62.30;;;26.97;;
17858;SDS011;35426;30.698;104.050;2023-12-20T00:45:19;59.93;;;25.27;;
17858;SDS011;35426;30.698;104.050;2023-12-20T00:47:53;60.20;;;26.10;;
17858;SDS011;35426;30.698;104.050;2023-12-20T00:50:29;68.77;;;27.80;;
17858;SDS011;35426;30.698;104.050;2023-12-20T00:53:03;66.23;;;26.47;;
17858;SDS011;35426;30.698;104.050;2023-12-20T00:55:37;74.20;;;28.53;;
17858;SDS011;35426;30.698;104.050;2023-12-20T00:58:11;63.60;;;28.23;;
17858;SDS011;35426;30.698;104.050;2023-12-20T01:00:46;66.03;;;28.00;;
17858;SDS011;35426;30.698;104.050;2023-12-20T01:03:21;71.60;;;28.40;;
17858;SDS011;35426;30.698;104.050;2023-12-20T01:05:57;66.20;;;27.97;;
17858;SDS011;35426;30.698;104.050;2023-12-20T01:08:33;65.93;;;29.03;;
17858;SDS011;35426;30.698;104.050;2023-12-20T01:11:10;71.30;;;28.67;;
17858;SDS011;35426;30.698;104.050;2023-12-20T01:13:45;66.47;;;28.10;;
17858;SDS011;35426;30.698;104.050;2023-12-20T01:16:19;70.07;;;29.50;;
17858;SDS011;35426;30.698;104.050;2023-12-20T01:18:54;65.77;;;28.90;;
17858;SDS011;35426;30.698;104.050;2023-12-20T01:21:31;73.00;;;30.30;;
17858;SDS011;35426;30.698;104.050;2023-12-20T01:24:05;73.43;;;30.90;;
17858;SDS011;35426;30.698;104.050;2023-12-20T01:26:39;82.17;;;30.47;;
17858;SDS011;35426;30.698;104.050;2023-12-20T01:29:15;81.00;;;30.97;;
17858;SDS011;35426;30.698;104.050;2023-12-20T01:31:50;73.70;;;31.10;;
17858;SDS011;35426;30.698;104.050;2023-12-20T01:34:23;85.03;;;31.00;;
17858;SDS011;35426;30.698;104.050;2023-12-20T01:37:00;73.97;;;30.57;;
17858;SDS011;35426;30.698;104.050;2023-12-20T01:39:35;73.17;;;30.40;;
17858;SDS011;35426;30.698;104.050;2023-12-20T01:42:12;73.73;;;30.23;;
17858;SDS011;35426;30.698;104.050;2023-12-20T01:44:47;65.53;;;29.10;;
17858;SDS011;35426;30.698;104.050;2023-12-20T01:47:21;75.70;;;29.87;;
17858;SDS011;35426;30.698;104.050;2023-12-20T01:49:56;69.00;;;30.30;;
17858;SDS011;35426;30.698;104.050;2023-12-20T01:52:35;76.53;;;30.40;;
17858;SDS011;35426;30.698;104.050;2023-12-20T01:55:09;73.43;;;29.97;;
17858;SDS011;35426;30.698;104.050;2023-12-20T01:57:45;69.03;;;30.23;;
17858;SDS011;35426;30.698;104.050;2023-12-20T02:00:20;68.53;;;29.40;;
17858;SDS011;35426;30.698;104.050;2023-12-20T02:03:01;71.80;;;29.30;;
17858;SDS011;35426;30.698;104.050;2023-12-20T02:05:35;69.97;;;30.43;;
17858;SDS011;35426;30.698;104.050;2023-12-20T02:08:12;73.97;;;30.83;;
17858;SDS011;35426;30.698;104.050;2023-12-20T02:10:46;75.57;;;30.13;;
17858;SDS011;35426;30.698;104.050;2023-12-20T02:13:20;77.87;;;30.43;;
17858;SDS011;35426;30.698;104.050;2023-12-20T02:15:55;74.13;;;30.20;;
17858;SDS011;35426;30.698;104.050;2023-12-20T02:18:30;75.00;;;31.00;;
17858;SDS011;35426;30.698;104.050;2023-12-20T02:21:05;78.43;;;30.90;;
17858;SDS011;35426;30.698;104.050;2023-12-20T02:23:45;72.17;;;30.13;;
17858;SDS011;35426;30.698;104.050;2023-12-20T02:26:19;66.80;;;29.80;;
17858;SDS011;35426;30.698;104.050;2023-12-20T02:28:53;64.97;;;30.33;;
17858;SDS011;35426;30.698;104.050;2023-12-20T02:31:28;71.27;;;30.13;;
17858;SDS011;35426;30.698;104.050;2023-12-20T02:34:04;72.80;;;29.40;;
17858;SDS011;35426;30.698;104.050;2023-12-20T02:36:38;70.73;;;30.40;;
17858;SDS011;35426;30.698;104.050;2023-12-20T02:39:15;77.57;;;31.17;;
17858;SDS011;35426;30.698;104.050;2023-12-20T02:41:51;68.77;;;30.83;;
17858;SDS011;35426;30.698;104.050;2023-12-20T02:44:26;79.37;;;31.60;;
17858;SDS011;35426;30.698;104.050;2023-12-20T02:47:02;74.20;;;30.53;;
17858;SDS011;35426;30.698;104.050;2023-12-20T02:49:36;74.83;;;29.83;;
17858;SDS011;35426;30.698;104.050;2023-12-20T02:52:10;73.40;;;31.23;;
17858;SDS011;35426;30.698;104.050;2023-12-20T02:54:46;77.70;;;31.77;;
17858;SDS011;35426;30.698;104.050;2023-12-20T02:57:20;69.57;;;30.43;;
17858;SDS011;35426;30.698;104.050;2023-12-20T02:59:55;79.17;;;32.53;;
17858;SDS011;35426;30.698;104.050;2023-12-20T03:02:30;80.93;;;32.63;;
17858;SDS011;35426;30.698;104.050;2023-12-20T03:05:05;74.23;;;32.17;;
17858;SDS011;35426;30.698;104.050;2023-12-20T03:07:40;70.77;;;32.20;;
17858;SDS011;35426;30.698;104.050;2023-12-20T03:10:17;83.43;;;32.90;;
17858;SDS011;35426;30.698;104.050;2023-12-20T03:12:54;75.97;;;32.13;;
17858;SDS011;35426;30.698;104.050;2023-12-20T03:15:29;80.43;;;32.93;;
17858;SDS011;35426;30.698;104.050;2023-12-20T03:18:04;75.23;;;33.40;;
17858;SDS011;35426;30.698;104.050;2023-12-20T03:20:42;70.60;;;31.20;;
17858;SDS011;35426;30.698;104.050;2023-12-20T03:23:18;76.40;;;32.17;;
17858;SDS011;35426;30.698;104.050;2023-12-20T03:25:53;80.50;;;32.83;;
17858;SDS011;35426;30.698;104.050;2023-12-20T03:28:31;78.67;;;33.17;;
17858;SDS011;35426;30.698;104.050;2023-12-20T03:31:04;74.10;;;31.90;;
17858;SDS011;35426;30.698;104.050;2023-12-20T03:33:39;72.43;;;31.50;;
17858;SDS011;35426;30.698;104.050;2023-12-20T03:36:16;75.90;;;33.07;;
17858;SDS011;35426;30.698;104.050;2023-12-20T03:38:53;79.03;;;31.13;;
17858;SDS011;35426;30.698;104.050;2023-12-20T03:41:28;82.47;;;33.10;;
17858;SDS011;35426;30.698;104.050;2023-12-20T03:44:02;76.77;;;32.37;;
17858;SDS011;35426;30.698;104.050;2023-12-20T03:46:36;79.33;;;33.53;;
17858;SDS011;35426;30.698;104.050;2023-12-20T03:49:11;88.07;;;32.70;;
17858;SDS011;35426;30.698;104.050;2023-12-20T03:51:46;73.73;;;32.43;;
17858;SDS011;35426;30.698;104.050;2023-12-20T03:54:20;73.17;;;32.50;;
17858;SDS011;35426;30.698;104.050;2023-12-20T03:56:55;75.43;;;32.47;;
17858;SDS011;35426;30.698;104.050;2023-12-20T03:59:29;74.77;;;32.33;;
17858;SDS011;35426;30.698;104.050;2023-12-20T04:02:07;84.57;;;32.07;;
17858;SDS011;35426;30.698;104.050;2023-12-20T04:04:44;80.03;;;34.07;;
17858;SDS011;35426;30.698;104.050;2023-12-20T04:07:20;74.27;;;32.50;;
17858;SDS011;35426;30.698;104.050;2023-12-20T04:09:56;73.87;;;32.17;;
17858;SDS011;35426;30.698;104.050;2023-12-20T04:12:33;67.47;;;31.77;;
17858;SDS011;35426;30.698;104.050;2023-12-20T04:15:07;74.47;;;32.33;;
17858;SDS011;35426;30.698;104.050;2023-12-20T04:17:41;81.10;;;32.47;;
17858;SDS011;35426;30.698;104.050;2023-12-20T04:20:16;70.50;;;32.13;;
17858;SDS011;35426;30.698;104.050;2023-12-20T04:22:50;74.87;;;31.93;;
17858;SDS011;35426;30.698;104.050;2023-12-20T04:25:23;74.13;;;33.47;;
17858;SDS011;35426;30.698;104.050;2023-12-20T04:28:00;76.03;;;33.90;;
17858;SDS011;35426;30.698;104.050;2023-12-20T04:30:34;83.23;;;32.37;;
17858;SDS011;35426;30.698;104.050;2023-12-20T04:33:11;78.60;;;32.13;;
17858;SDS011;35426;30.698;104.050;2023-12-20T04:35:44;80.67;;;32.03;;
17858;SDS011;35426;30.698;104.050;2023-12-20T04:38:18;73.43;;;31.93;;
17858;SDS011;35426;30.698;104.050;2023-12-20T04:40:52;80.00;;;32.57;;
17858;SDS011;35426;30.698;104.050;2023-12-20T04:43:29;77.30;;;31.97;;
17858;SDS011;35426;30.698;104.050;2023-12-20T04:46:03;75.40;;;33.73;;
17858;SDS011;35426;30.698;104.050;2023-12-20T04:48:36;82.57;;;32.50;;
17858;SDS011;35426;30.698;104.050;2023-12-20T04:51:10;79.83;;;33.03;;
17858;SDS011;35426;30.698;104.050;2023-12-20T04:53:46;69.10;;;31.90;;
17858;SDS011;35426;30.698;104.050;2023-12-20T04:56:20;81.50;;;34.20;;
17858;SDS011;35426;30.698;104.050;2023-12-20T04:58:57;77.93;;;33.27;;
17858;SDS011;35426;30.698;104.050;2023-12-20T05:01:31;79.30;;;33.67;;
17858;SDS011;35426;30.698;104.050;2023-12-20T05:04:06;72.53;;;32.13;;
17858;SDS011;35426;30.698;104.050;2023-12-20T05:06:40;84.20;;;32.97;;
17858;SDS011;35426;30.698;104.050;2023-12-20T05:09:15;71.10;;;31.37;;
17858;SDS011;35426;30.698;104.050;2023-12-20T05:11:54;82.57;;;33.53;;
17858;SDS011;35426;30.698;104.050;2023-12-20T05:14:31;83.00;;;32.17;;
17858;SDS011;35426;30.698;104.050;2023-12-20T05:17:05;73.13;;;31.77;;
17858;SDS011;35426;30.698;104.050;2023-12-20T05:19:39;77.53;;;32.03;;
17858;SDS011;35426;30.698;104.050;2023-12-20T05:22:13;74.30;;;32.40;;
17858;SDS011;35426;30.698;104.050;2023-12-20T05:24:46;72.03;;;31.67;;
17858;SDS011;35426;30.698;104.050;2023-12-20T05:27:20;67.30;;;32.47;;
17858;SDS011;35426;30.698;104.050;2023-12-20T05:29:56;85.40;;;31.00;;
17858;SDS011;35426;30.698;104.050;2023-12-20T05:32:30;76.17;;;31.63;;
17858;SDS011;35426;30.698;104.050;2023-12-20T05:35:04;67.67;;;31.67;;
17858;SDS011;35426;30.698;104.050;2023-12-20T05:37:38;75.30;;;33.03;;
17858;SDS011;35426;30.698;104.050;2023-12-20T05:40:13;75.90;;;32.00;;
17858;SDS011;35426;30.698;104.050;2023-12-20T05:42:48;73.77;;;30.10;;
17858;SDS011;35426;30.698;104.050;2023-12-20T05:45:25;68.50;;;30.47;;
17858;SDS011;35426;30.698;104.050;2023-12-20T05:48:00;76.23;;;32.00;;
17858;SDS011;35426;30.698;104.050;2023-12-20T05:50:34;77.03;;;33.20;;
17858;SDS011;35426;30.698;104.050;2023-12-20T05:53:08;82.67;;;32.60;;
17858;SDS011;35426;30.698;104.050;2023-12-20T05:55:43;79.10;;;32.00;;
17858;SDS011;35426;30.698;104.050;2023-12-20T05:58:17;77.80;;;32.30;;
17858;SDS011;35426;30.698;104.050;2023-12-20T06:00:53;77.80;;;31.80;;
17858;SDS011;35426;30.698;104.050;2023-12-20T06:03:26;74.03;;;31.63;;
17858;SDS011;35426;30.698;104.050;2023-12-20T06:06:04;73.37;;;31.90;;
17858;SDS011;35426;30.698;104.050;2023-12-20T06:08:45;80.30;;;32.80;;
17858;SDS011;35426;30.698;104.050;2023-12-20T06:11:19;79.30;;;32.37;;
17858;SDS011;35426;30.698;104.050;2023-12-20T06:13:53;74.00;;;33.00;;
17858;SDS011;35426;30.698;104.050;2023-12-20T06:16:29;77.07;;;32.27;;
17858;SDS011;35426;30.698;104.050;2023-12-20T06:19:03;74.77;;;31.80;;
17858;SDS011;35426;30.698;104.050;2023-12-20T06:21:37;70.53;;;31.80;;
17858;SDS011;35426;30.698;104.050;2023-12-20T06:24:12;65.33;;;29.97;;
17858;SDS011;35426;30.698;104.050;2023-12-20T06:26:46;66.47;;;29.17;;
17858;SDS011;35426;30.698;104.050;2023-12-20T06:29:21;72.57;;;31.07;;
17858;SDS011;35426;30.698;104.050;2023-12-20T06:31:56;70.03;;;32.63;;
17858;SDS011;35426;30.698;104.050;2023-12-20T06:34:31;71.57;;;30.77;;
17858;SDS011;35426;30.698;104.050;2023-12-20T06:37:05;66.23;;;30.13;;
17858;SDS011;35426;30.698;104.050;2023-12-20T06:39:39;69.57;;;32.93;;
17858;SDS011;35426;30.698;104.050;2023-12-20T06:42:14;74.60;;;31.70;;
17858;SDS011;35426;30.698;104.050;2023-12-20T06:44:47;75.07;;;32.00;;
17858;SDS011;35426;30.698;104.050;2023-12-20T06:47:23;65.90;;;31.87;;
17858;SDS011;35426;30.698;104.050;2023-12-20T06:49:57;71.63;;;31.53;;
17858;SDS011;35426;30.698;104.050;2023-12-20T06:52:31;71.10;;;30.63;;
17858;SDS011;35426;30.698;104.050;2023-12-20T06:55:05;70.57;;;29.80;;
17858;SDS011;35426;30.698;104.050;2023-12-20T06:57:40;72.97;;;31.43;;
17858;SDS011;35426;30.698;104.050;2023-12-20T07:00:14;79.37;;;33.27;;
17858;SDS011;35426;30.698;104.050;2023-12-20T07:02:55;71.97;;;31.37;;
17858;SDS011;35426;30.698;104.050;2023-12-20T07:05:29;73.93;;;32.70;;
17858;SDS011;35426;30.698;104.050;2023-12-20T07:08:03;68.53;;;32.10;;
17858;SDS011;35426;30.698;104.050;2023-12-20T07:10:38;72.30;;;32.50;;
17858;SDS011;35426;30.698;104.050;2023-12-20T07:13:13;72.70;;;31.70;;
17858;SDS011;35426;30.698;104.050;2023-12-20T07:15:47;71.10;;;32.50;;
17858;SDS011;35426;30.698;104.050;2023-12-20T07:18:25;69.33;;;32.50;;
17858;SDS011;35426;30.698;104.050;2023-12-20T07:20:58;72.00;;;32.47;;
17858;SDS011;35426;30.698;104.050;2023-12-20T07:23:33;68.50;;;31.47;;
17858;SDS011;35426;30.698;104.050;2023-12-20T07:26:06;69.73;;;31.53;;
17858;SDS011;35426;30.698;104.050;2023-12-20T07:28:41;68.77;;;31.50;;
17858;SDS011;35426;30.698;104.050;2023-12-20T07:31:15;73.17;;;33.20;;
17858;SDS011;35426;30.698;104.050;2023-12-20T07:33:52;76.43;;;31.80;;
17858;SDS011;35426;30.698;104.050;2023-12-20T07:36:26;76.57;;;32.63;;
17858;SDS011;35426;30.698;104.050;2023-12-20T07:39:00;74.50;;;31.87;;
17858;SDS011;35426;30.698;104.050;2023-12-20T07:41:34;70.87;;;32.30;;
17858;SDS011;35426;30.698;104.050;2023-12-20T07:44:10;77.43;;;33.93;;
17858;SDS011;35426;30.698;104.050;2023-12-20T07:46:44;70.00;;;31.57;;
17858;SDS011;35426;30.698;104.050;2023-12-20T07:49:21;71.87;;;32.23;;
17858;SDS011;35426;30.698;104.050;2023-12-20T07:51:56;73.77;;;33.57;;
17858;SDS011;35426;30.698;104.050;2023-12-20T07:54:30;79.57;;;32.83;;
17858;SDS011;35426;30.698;104.050;2023-12-20T07:57:04;76.97;;;32.70;;
17858;SDS011;35426;30.698;104.050;2023-12-20T07:59:40;71.67;;;32.27;;
17858;SDS011;35426;30.698;104.050;2023-12-20T08:02:17;73.97;;;32.43;;
17858;SDS011;35426;30.698;104.050;2023-12-20T08:04:53;75.07;;;34.23;;
17858;SDS011;35426;30.698;104.050;2023-12-20T08:07:30;74.73;;;32.63;;
17858;SDS011;35426;30.698;104.050;2023-12-20T08:10:03;75.13;;;33.23;;
17858;SDS011;35426;30.698;104.050;2023-12-20T08:12:38;89.57;;;34.80;;
17858;SDS011;35426;30.698;104.050;2023-12-20T08:15:12;85.57;;;34.10;;
17858;SDS011;35426;30.698;104.050;2023-12-20T08:17:47;77.63;;;34.77;;
17858;SDS011;35426;30.698;104.050;2023-12-20T08:20:25;84.70;;;34.80;;
17858;SDS011;35426;30.698;104.050;2023-12-20T08:23:08;76.53;;;33.13;;
17858;SDS011;35426;30.698;104.050;2023-12-20T08:25:44;80.87;;;32.73;;
17858;SDS011;35426;30.698;104.050;2023-12-20T08:28:19;71.00;;;31.63;;
17858;SDS011;35426;30.698;104.050;2023-12-20T08:30:54;76.00;;;33.00;;
17858;SDS011;35426;30.698;104.050;2023-12-20T08:33:29;76.53;;;33.27;;
17858;SDS011;35426;30.698;104.050;2023-12-20T08:36:05;74.87;;;33.50;;
17858;SDS011;35426;30.698;104.050;2023-12-20T08:38:40;72.40;;;32.03;;
17858;SDS011;35426;30.698;104.050;2023-12-20T08:41:16;81.27;;;33.60;;
17858;SDS011;35426;30.698;104.050;2023-12-20T08:43:51;75.90;;;34.63;;
17858;SDS011;35426;30.698;104.050;2023-12-20T08:46:24;79.17;;;34.50;;
17858;SDS011;35426;30.698;104.050;2023-12-20T08:48:58;82.73;;;34.40;;
17858;SDS011;35426;30.698;104.050;2023-12-20T08:51:37;84.23;;;33.37;;
17858;SDS011;35426;30.698;104.050;2023-12-20T08:54:13;79.20;;;33.27;;
17858;SDS011;35426;30.698;104.050;2023-12-20T08:56:49;78.67;;;35.07;;
17858;SDS011;35426;30.698;104.050;2023-12-20T08:59:23;78.70;;;33.17;;
17858;SDS011;35426;30.698;104.050;2023-12-20T09:01:58;89.97;;;33.63;;
17858;SDS011;35426;30.698;104.050;2023-12-20T09:04:33;83.93;;;33.53;;
17858;SDS011;35426;30.698;104.050;2023-12-20T09:07:11;80.67;;;33.30;;
17858;SDS011;35426;30.698;104.050;2023-12-20T09:09:54;92.90;;;33.30;;
17858;SDS011;35426;30.698;104.050;2023-12-20T09:12:29;83.70;;;34.50;;
17858;SDS011;35426;30.698;104.050;2023-12-20T09:15:05;86.87;;;33.57;;
17858;SDS011;35426;30.698;104.050;2023-12-20T09:17:40;89.80;;;34.93;;
17858;SDS011;35426;30.698;104.050;2023-12-20T09:20:14;81.73;;;34.23;;
17858;SDS011;35426;30.698;104.050;2023-12-20T09:22:51;77.03;;;33.77;;
17858;SDS011;35426;30.698;104.050;2023-12-20T09:25:27;77.70;;;31.50;;
17858;SDS011;35426;30.698;104.050;2023-12-20T09:28:02;78.40;;;34.23;;
17858;SDS011;35426;30.698;104.050;2023-12-20T09:30:37;84.60;;;34.10;;
17858;SDS011;35426;30.698;104.050;2023-12-20T09:33:11;80.83;;;34.03;;
17858;SDS011;35426;30.698;104.050;2023-12-20T09:35:48;73.50;;;33.50;;
17858;SDS011;35426;30.698;104.050;2023-12-20T09:38:25;76.67;;;34.33;;
17858;SDS011;35426;30.698;104.050;2023-12-20T09:40:59;76.50;;;33.53;;
17858;SDS011;35426;30.698;104.050;2023-12-20T09:43:37;80.93;;;33.17;;
17858;SDS011;35426;30.698;104.050;2023-12-20T09:46:14;80.37;;;33.37;;
17858;SDS011;35426;30.698;104.050;2023-12-20T09:48:56;77.77;;;35.27;;
17858;SDS011;35426;30.698;104.050;2023-12-20T09:51:30;85.90;;;33.90;;
17858;SDS011;35426;30.698;104.050;2023-12-20T09:54:08;81.17;;;33.73;;
17858;SDS011;35426;30.698;104.050;2023-12-20T09:56:43;77.13;;;33.13;;
17858;SDS011;35426;30.698;104.050;2023-12-20T09:59:19;77.47;;;33.07;;
17858;SDS011;35426;30.698;104.050;2023-12-20T10:01:53;81.13;;;33.30;;
17858;SDS011;35426;30.698;104.050;2023-12-20T10:04:29;99.33;;;35.47;;
17858;SDS011;35426;30.698;104.050;2023-12-20T10:07:05;84.90;;;33.73;;
17858;SDS011;35426;30.698;104.050;2023-12-20T10:09:41;77.13;;;32.47;;
17858;SDS011;35426;30.698;104.050;2023-12-20T10:12:16;80.33;;;34.13;;
17858;SDS011;35426;30.698;104.050;2023-12-20T10:14:50;86.20;;;33.87;;
17858;SDS011;35426;30.698;104.050;2023-12-20T10:17:24;84.40;;;34.90;;
17858;SDS011;35426;30.698;104.050;2023-12-20T10:20:01;81.20;;;34.37;;
17858;SDS011;35426;30.698;104.050;2023-12-20T10:22:39;82.70;;;34.20;;
17858;SDS011;35426;30.698;104.050;2023-12-20T10:25:16;91.73;;;35.60;;
17858;SDS011;35426;30.698;104.050;2023-12-20T10:27:50;86.63;;;33.87;;
17858;SDS011;35426;30.698;104.050;2023-12-20T10:30:42;82.83;;;33.87;;
17858;SDS011;35426;30.698;104.050;2023-12-20T10:33:22;87.07;;;34.23;;
17858;SDS011;35426;30.698;104.050;2023-12-20T10:36:00;78.70;;;31.80;;
17858;SDS011;35426;30.698;104.050;2023-12-20T10:38:34;83.13;;;33.73;;
17858;SDS011;35426;30.698;104.050;2023-12-20T10:41:16;87.50;;;33.77;;
17858;SDS011;35426;30.698;104.050;2023-12-20T10:43:58;82.27;;;34.13;;
17858;SDS011;35426;30.698;104.050;2023-12-20T10:46:35;73.90;;;33.50;;
17858;SDS011;35426;30.698;104.050;2023-12-20T10:49:08;84.43;;;33.60;;
17858;SDS011;35426;30.698;104.050;2023-12-20T10:51:47;77.13;;;32.87;;
17858;SDS011;35426;30.698;104.050;2023-12-20T10:54:23;80.27;;;34.87;;
17858;SDS011;35426;30.698;104.050;2023-12-20T10:56:58;80.03;;;33.70;;
17858;SDS011;35426;30.698;104.050;2023-12-20T10:59:36;80.40;;;34.27;;
17858;SDS011;35426;30.698;104.050;2023-12-20T11:02:13;83.13;;;34.17;;
17858;SDS011;35426;30.698;104.050;2023-12-20T11:07:40;95.70;;;36.10;;
17858;SDS011;35426;30.698;104.050;2023-12-20T11:10:22;98.03;;;36.23;;
17858;SDS011;35426;30.698;104.050;2023-12-20T11:13:04;88.63;;;35.43;;
17858;SDS011;35426;30.698;104.050;2023-12-20T11:15:43;97.67;;;38.10;;
17858;SDS011;35426;30.698;104.050;2023-12-20T11:18:18;93.20;;;36.90;;
17858;SDS011;35426;30.698;104.050;2023-12-20T11:20:52;91.43;;;37.23;;
17858;SDS011;35426;30.698;104.050;2023-12-20T11:23:33;94.67;;;36.93;;
17858;SDS011;35426;30.698;104.050;2023-12-20T11:26:07;105.47;;;37.53;;
17858;SDS011;35426;30.698;104.050;2023-12-20T11:28:44;96.17;;;37.30;;
17858;SDS011;35426;30.698;104.050;2023-12-20T11:31:18;98.00;;;37.43;;
17858;SDS011;35426;30.698;104.050;2023-12-20T11:33:53;91.13;;;36.23;;
17858;SDS011;35426;30.698;104.050;2023-12-20T11:36:49;94.43;;;38.27;;
17858;SDS011;35426;30.698;104.050;2023-12-20T11:39:31;89.27;;;37.30;;
17858;SDS011;35426;30.698;104.050;2023-12-20T11:42:06;103.90;;;39.50;;
17858;SDS011;35426;30.698;104.050;2023-12-20T11:44:44;94.10;;;38.27;;
17858;SDS011;35426;30.698;104.050;2023-12-20T11:47:18;97.73;;;38.87;;
17858;SDS011;35426;30.698;104.050;2023-12-20T11:49:54;106.80;;;39.20;;
17858;SDS011;35426;30.698;104.050;2023-12-20T11:52:31;101.63;;;39.83;;
17858;SDS011;35426;30.698;104.050;2023-12-20T11:55:05;96.13;;;38.93;;
17858;SDS011;35426;30.698;104.050;2023-12-20T11:57:39;101.60;;;38.33;;
17858;SDS011;35426;30.698;104.050;2023-12-20T12:00:19;92.23;;;37.60;;
17858;SDS011;35426;30.698;104.050;2023-12-20T12:02:56;104.67;;;39.90;;
17858;SDS011;35426;30.698;104.050;2023-12-20T12:05:33;99.20;;;38.77;;
17858;SDS011;35426;30.698;104.050;2023-12-20T12:08:07;98.37;;;40.33;;
17858;SDS011;35426;30.698;104.050;2023-12-20T12:10:42;105.93;;;40.67;;
17858;SDS011;35426;30.698;104.050;2023-12-20T12:13:16;102.60;;;40.00;;
17858;SDS011;35426;30.698;104.050;2023-12-20T12:15:53;105.40;;;41.37;;
17858;SDS011;35426;30.698;104.050;2023-12-20T12:18:27;105.10;;;40.60;;
17858;SDS011;35426;30.698;104.050;2023-12-20T12:21:01;102.57;;;40.27;;
17858;SDS011;35426;30.698;104.050;2023-12-20T12:23:45;107.83;;;40.17;;
17858;SDS011;35426;30.698;104.050;2023-12-20T12:26:19;105.97;;;41.27;;
17858;SDS011;35426;30.698;104.050;2023-12-20T12:28:54;107.53;;;41.23;;
17858;SDS011;35426;30.698;104.050;2023-12-20T12:31:30;103.00;;;41.50;;
17858;SDS011;35426;30.698;104.050;2023-12-20T12:34:05;108.73;;;41.67;;
17858;SDS011;35426;30.698;104.050;2023-12-20T12:36:40;101.53;;;42.03;;
17858;SDS011;35426;30.698;104.050;2023-12-20T12:39:16;115.33;;;42.13;;
17858;SDS011;35426;30.698;104.050;2023-12-20T12:41:52;118.03;;;42.93;;
17858;SDS011;35426;30.698;104.050;2023-12-20T12:44:27;107.33;;;42.20;;
17858;SDS011;35426;30.698;104.050;2023-12-20T12:47:03;112.30;;;42.47;;
17858;SDS011;35426;30.698;104.050;2023-12-20T12:49:37;110.60;;;41.30;;
17858;SDS011;35426;30.698;104.050;2023-12-20T12:52:12;110.10;;;40.67;;
17858;SDS011;35426;30.698;104.050;2023-12-20T12:54:46;95.67;;;41.20;;
17858;SDS011;35426;30.698;104.050;2023-12-20T12:57:22;110.17;;;41.90;;
17858;SDS011;35426;30.698;104.050;2023-12-20T12:59:55;114.40;;;42.33;;
17858;SDS011;35426;30.698;104.050;2023-12-20T13:02:32;112.20;;;43.50;;
17858;SDS011;35426;30.698;104.050;2023-12-20T13:05:07;111.27;;;42.80;;
17858;SDS011;35426;30.698;104.050;2023-12-20T13:07:41;103.30;;;43.23;;
17858;SDS011;35426;30.698;104.050;2023-12-20T13:10:17;110.53;;;44.17;;
17858;SDS011;35426;30.698;104.050;2023-12-20T13:12:50;110.23;;;43.00;;
17858;SDS011;35426;30.698;104.050;2023-12-20T13:15:24;115.63;;;43.40;;
17858;SDS011;35426;30.698;104.050;2023-12-20T13:18:03;112.37;;;41.60;;
17858;SDS011;35426;30.698;104.050;2023-12-20T13:20:37;112.63;;;43.47;;
17858;SDS011;35426;30.698;104.050;2023-12-20T13:23:11;114.00;;;43.10;;
17858;SDS011;35426;30.698;104.050;2023-12-20T13:25:47;116.17;;;42.83;;
17858;SDS011;35426;30.698;104.050;2023-12-20T13:28:21;105.70;;;41.27;;
17858;SDS011;35426;30.698;104.050;2023-12-20T13:30:55;117.10;;;43.43;;
17858;SDS011;35426;30.698;104.050;2023-12-20T13:33:31;108.43;;;43.60;;
17858;SDS011;35426;30.698;104.050;2023-12-20T13:36:13;116.67;;;43.47;;
17858;SDS011;35426;30.698;104.050;2023-12-20T13:38:46;109.30;;;43.73;;
17858;SDS011;35426;30.698;104.050;2023-12-20T13:41:20;114.87;;;43.67;;
17858;SDS011;35426;30.698;104.050;2023-12-20T13:43:54;116.00;;;44.80;;
17858;SDS011;35426;30.698;104.050;2023-12-20T13:46:29;113.77;;;44.80;;
17858;SDS011;35426;30.698;104.050;2023-12-20T13:49:18;122.63;;;45.50;;
17858;SDS011;35426;30.698;104.050;2023-12-20T13:51:56;122.90;;;44.37;;
17858;SDS011;35426;30.698;104.050;2023-12-20T13:54:31;114.33;;;43.87;;
17858;SDS011;35426;30.698;104.050;2023-12-20T13:57:06;112.63;;;42.53;;
17858;SDS011;35426;30.698;104.050;2023-12-20T14:00:01;107.40;;;41.00;;
17858;SDS011;35426;30.698;104.050;2023-12-20T14:02:38;101.30;;;41.53;;
17858;SDS011;35426;30.698;104.050;2023-12-20T14:05:17;94.50;;;40.20;;
17858;SDS011;35426;30.698;104.050;2023-12-20T14:07:56;99.67;;;40.43;;
17858;SDS011;35426;30.698;104.050;2023-12-20T14:10:30;105.43;;;41.67;;
17858;SDS011;35426;30.698;104.050;2023-12-20T14:13:04;98.53;;;39.90;;
17858;SDS011;35426;30.698;104.050;2023-12-20T14:15:38;92.47;;;39.60;;
17858;SDS011;35426;30.698;104.050;2023-12-20T14:18:13;95.60;;;38.93;;
17858;SDS011;35426;30.698;104.050;2023-12-20T14:20:49;96.27;;;38.53;;
17858;SDS011;35426;30.698;104.050;2023-12-20T14:23:25;102.37;;;38.23;;
17858;SDS011;35426;30.698;104.050;2023-12-20T14:26:05;93.13;;;38.43;;
17858;SDS011;35426;30.698;104.050;2023-12-20T14:28:45;90.30;;;37.30;;
17858;SDS011;35426;30.698;104.050;2023-12-20T14:31:19;96.63;;;38.20;;
17858;SDS011;35426;30.698;104.050;2023-12-20T14:33:54;86.83;;;38.07;;
17858;SDS011;35426;30.698;104.050;2023-12-20T14:36:31;88.17;;;37.93;;
17858;SDS011;35426;30.698;104.050;2023-12-20T14:39:07;93.10;;;39.17;;
17858;SDS011;35426;30.698;104.050;2023-12-20T14:41:51;97.50;;;37.77;;
17858;SDS011;35426;30.698;104.050;2023-12-20T14:44:35;94.27;;;37.60;;